createdAt,value
2017-10-17T00:01:13.817Z,18.54
2017-10-17T00:03:52.372Z,24.08
2017-10-17T00:06:20.664Z,19.80
2017-10-17T00:08:48.931Z,18.00
2017-10-17T00:11:17.187Z,22.16
2017-10-17T00:13:45.487Z,21.60
2017-10-17T00:16:13.764Z,17.20
2017-10-17T00:18:42.092Z,19.40
2017-10-17T00:21:22.347Z,19.20
2017-10-17T00:23:50.639Z,19.36
2017-10-17T00:26:18.896Z,18.60
2017-10-17T00:28:47.162Z,19.60
2017-10-17T00:31:14.693Z,23.50
2017-10-17T00:33:42.979Z,17.66
2017-10-17T00:36:15.023Z,19.92
2017-10-17T00:39:00.092Z,23.92
2017-10-17T00:41:28.351Z,19.44
2017-10-17T00:43:56.659Z,16.50
2017-10-17T00:46:24.919Z,17.84
2017-10-17T00:48:57.179Z,20.10
2017-10-17T00:51:24.691Z,20.88
2017-10-17T00:54:13.995Z,21.46
2017-10-17T00:56:42.303Z,17.90
2017-10-17T00:59:27.369Z,22.98
2017-10-17T01:01:54.896Z,18.46
2017-10-17T01:04:23.192Z,20.98
2017-10-17T01:06:51.457Z,18.78
2017-10-17T01:09:25.763Z,20.46
2017-10-17T01:11:54.064Z,22.36
2017-10-17T01:14:22.328Z,25.38
2017-10-17T01:16:50.591Z,21.32
2017-10-17T01:19:18.880Z,19.16
2017-10-17T01:21:47.147Z,20.12
2017-10-17T01:24:15.447Z,19.38
2017-10-17T01:26:43.708Z,22.74
2017-10-17T01:29:14.708Z,20.90
2017-10-17T01:31:43.007Z,18.96
2017-10-17T01:34:11.257Z,18.28
2017-10-17T01:36:41.245Z,21.92
2017-10-17T01:39:09.532Z,22.02
2017-10-17T01:41:39.067Z,19.48
2017-10-17T01:44:11.006Z,19.86
2017-10-17T01:46:40.770Z,19.88
2017-10-17T01:49:11.962Z,21.92
2017-10-17T01:51:46.826Z,18.56
2017-10-17T01:54:16.899Z,19.34
2017-10-17T01:56:45.159Z,23.64
2017-10-17T01:59:17.841Z,20.90
2017-10-17T02:01:47.110Z,17.06
2017-10-17T02:04:15.381Z,22.54
2017-10-17T02:06:43.671Z,20.26
2017-10-17T02:09:11.939Z,19.74
2017-10-17T02:11:40.218Z,18.54
2017-10-17T02:14:09.387Z,27.30
2017-10-17T02:16:39.027Z,20.92
2017-10-17T02:19:14.782Z,26.18
2017-10-17T02:22:05.644Z,27.20
2017-10-17T02:24:38.833Z,21.28
2017-10-17T02:27:07.611Z,19.32
2017-10-17T02:29:38.944Z,17.88
2017-10-17T02:32:30.496Z,21.84
2017-10-17T02:35:00.420Z,22.16
2017-10-17T02:37:28.687Z,17.04
2017-10-17T02:39:56.939Z,20.62
2017-10-17T02:42:25.224Z,19.54
2017-10-17T02:44:53.478Z,21.20
2017-10-17T02:47:21.760Z,19.00
2017-10-17T02:49:50.711Z,22.10
2017-10-17T02:52:34.836Z,23.68
2017-10-17T02:55:04.089Z,20.66
2017-10-17T02:57:37.623Z,18.72
2017-10-17T03:00:05.890Z,19.46
2017-10-17T03:02:42.491Z,20.86
2017-10-17T03:05:12.298Z,23.48
2017-10-17T03:07:56.854Z,24.52
2017-10-17T03:10:25.113Z,25.58
2017-10-17T03:12:53.366Z,18.90
2017-10-17T03:15:24.355Z,20.30
2017-10-17T03:17:52.658Z,21.20
2017-10-17T03:20:22.886Z,20.44
2017-10-17T03:22:51.176Z,20.92
2017-10-17T03:25:19.429Z,18.30
2017-10-17T03:27:48.658Z,19.88
2017-10-17T03:30:16.928Z,21.56
2017-10-17T03:32:44.419Z,18.72
2017-10-17T03:35:15.101Z,21.26
2017-10-17T03:37:51.290Z,19.36
2017-10-17T03:40:43.176Z,24.56
2017-10-17T03:43:43.379Z,19.72
2017-10-17T03:46:11.670Z,20.04
2017-10-17T03:48:40.799Z,17.96
2017-10-17T03:51:09.902Z,18.90
2017-10-17T03:53:47.898Z,19.26
2017-10-17T03:56:42.826Z,18.78
2017-10-17T03:59:17.895Z,22.66
2017-10-17T04:01:46.343Z,18.04
2017-10-17T04:04:35.387Z,17.98
2017-10-17T04:10:19.269Z,21.50
2017-10-17T04:12:51.240Z,17.98
2017-10-17T04:15:19.530Z,28.04
2017-10-17T04:17:51.246Z,17.62
2017-10-17T04:20:27.362Z,22.68
2017-10-17T04:23:02.288Z,24.22
2017-10-17T04:35:18.614Z,18.64
2017-10-17T04:37:47.570Z,21.48
2017-10-17T04:40:28.540Z,18.56
2017-10-17T04:43:19.586Z,16.82
2017-10-17T04:45:54.468Z,22.86
2017-10-17T04:48:48.262Z,21.74
2017-10-17T04:51:29.403Z,19.20
2017-10-17T04:54:30.247Z,19.12
2017-10-17T04:57:01.120Z,23.42
2017-10-17T04:59:41.083Z,25.30
2017-10-17T05:02:15.743Z,20.86
2017-10-17T05:06:53.011Z,22.46
2017-10-17T05:09:27.882Z,21.62
2017-10-17T05:11:56.195Z,19.50
2017-10-17T05:14:43.954Z,19.38
2017-10-17T05:17:33.762Z,31.18
2017-10-17T05:20:09.322Z,22.72
2017-10-17T05:22:44.166Z,23.26
2017-10-17T05:25:16.022Z,17.84
2017-10-17T05:28:04.250Z,23.72
2017-10-17T05:30:42.163Z,23.68
2017-10-17T05:33:19.280Z,22.78
2017-10-17T05:35:47.536Z,21.70
2017-10-17T05:38:20.982Z,19.60
2017-10-17T05:40:49.243Z,23.84
2017-10-17T05:43:29.535Z,21.74
2017-10-17T05:45:57.795Z,24.10
2017-10-17T05:48:28.948Z,21.38
2017-10-17T05:51:05.147Z,24.40
2017-10-17T05:53:34.699Z,22.26
2017-10-17T05:56:04.610Z,21.90
2017-10-17T05:58:32.904Z,24.10
2017-10-17T06:01:06.847Z,27.58
2017-10-17T06:03:35.146Z,21.60
2017-10-17T06:06:11.811Z,21.18
2017-10-17T06:08:40.487Z,22.72
2017-10-17T06:11:09.186Z,26.62
2017-10-17T06:13:38.511Z,29.40
2017-10-17T06:16:06.811Z,32.70
2017-10-17T06:18:35.064Z,27.40
2017-10-17T06:21:05.276Z,21.78
2017-10-17T06:23:34.296Z,25.26
2017-10-17T06:26:08.578Z,27.58
2017-10-17T06:28:39.891Z,23.80
2017-10-17T06:31:08.619Z,23.90
2017-10-17T06:33:36.875Z,27.72
2017-10-17T06:36:05.287Z,22.88
2017-10-17T06:38:34.307Z,27.38
2017-10-17T06:41:01.796Z,32.80
2017-10-17T06:43:31.984Z,26.76
2017-10-17T06:46:00.282Z,30.50
2017-10-17T06:48:35.139Z,23.28
2017-10-17T06:51:04.106Z,27.58
2017-10-17T06:53:51.489Z,25.76
2017-10-17T06:56:19.784Z,24.90
2017-10-17T07:01:40.867Z,25.86
2017-10-17T07:04:09.631Z,28.62
2017-10-17T07:06:38.505Z,31.50
2017-10-17T07:09:13.733Z,30.28
2017-10-17T07:11:41.978Z,31.98
2017-10-17T07:14:26.664Z,24.90
2017-10-17T07:16:54.919Z,27.64
2017-10-17T07:19:31.091Z,26.64
2017-10-17T07:21:59.346Z,28.60
2017-10-17T07:24:27.599Z,28.78
2017-10-17T07:26:55.967Z,67.18
2017-10-17T07:29:23.446Z,32.70
2017-10-17T07:31:51.715Z,28.52
2017-10-17T07:34:20.014Z,27.24
2017-10-17T07:36:48.296Z,29.04
2017-10-17T07:39:16.591Z,25.44
2017-10-17T07:41:44.843Z,26.74
2017-10-17T07:44:13.095Z,30.80
2017-10-17T07:46:41.395Z,34.92
2017-10-17T07:49:09.656Z,28.78
2017-10-17T07:51:39.122Z,30.90
2017-10-17T07:54:07.809Z,32.80
2017-10-17T07:56:36.071Z,31.00
2017-10-17T07:59:05.379Z,34.02
2017-10-17T08:01:34.546Z,31.12
2017-10-17T08:04:02.818Z,32.16
2017-10-17T08:06:31.079Z,30.92
2017-10-17T08:08:59.371Z,27.80
2017-10-17T08:11:27.631Z,37.16
2017-10-17T08:13:55.936Z,30.62
2017-10-17T08:16:27.199Z,26.48
2017-10-17T08:18:55.484Z,23.76
2017-10-17T08:21:23.747Z,26.90
2017-10-17T08:23:52.030Z,35.50
2017-10-17T08:26:20.287Z,28.90
2017-10-17T08:28:48.589Z,29.78
2017-10-17T08:31:24.021Z,28.62
2017-10-17T08:33:52.307Z,32.16
2017-10-17T08:36:21.490Z,26.44
2017-10-17T08:38:49.792Z,31.06
2017-10-17T08:41:18.052Z,23.40
2017-10-17T08:43:46.314Z,28.20
2017-10-17T08:46:20.428Z,31.22
2017-10-17T08:48:48.711Z,31.16
2017-10-17T08:51:16.966Z,31.18
2017-10-17T08:53:45.262Z,26.48
2017-10-17T08:56:13.522Z,23.40
2017-10-17T08:58:41.782Z,39.50
2017-10-17T09:01:10.076Z,28.48
2017-10-17T09:03:38.343Z,36.60
2017-10-17T09:06:06.651Z,32.56
2017-10-17T09:08:34.902Z,23.04
2017-10-17T09:11:04.219Z,27.76
2017-10-17T09:13:32.502Z,30.88
2017-10-17T09:16:03.324Z,29.18
2017-10-17T09:18:31.615Z,38.54
2017-10-17T09:20:59.902Z,33.62
2017-10-17T09:23:28.201Z,30.06
2017-10-17T09:25:56.472Z,30.54
2017-10-17T09:28:24.763Z,36.10
2017-10-17T09:31:00.296Z,31.10
2017-10-17T09:33:28.570Z,42.08
2017-10-17T09:35:56.876Z,34.16
2017-10-17T09:38:25.145Z,31.64
2017-10-17T09:40:53.398Z,34.72
2017-10-17T09:43:28.026Z,31.54
2017-10-17T09:45:56.295Z,27.84
2017-10-17T09:48:35.958Z,35.00
2017-10-17T09:51:05.391Z,40.24
2017-10-17T09:53:54.359Z,39.50
2017-10-17T09:56:22.651Z,34.04
2017-10-17T09:58:50.939Z,34.90
2017-10-17T10:01:19.194Z,28.56
2017-10-17T10:03:50.500Z,28.14
2017-10-17T10:06:18.767Z,31.26
2017-10-17T10:08:49.060Z,33.42
2017-10-17T10:11:17.311Z,34.08
2017-10-17T10:13:46.608Z,33.10
2017-10-17T10:16:32.336Z,38.52
2017-10-17T10:19:00.614Z,40.84
2017-10-17T10:21:53.774Z,32.60
2017-10-17T10:24:22.063Z,28.94
2017-10-17T10:27:00.695Z,36.22
2017-10-17T10:29:28.984Z,39.20
2017-10-17T10:31:59.163Z,31.80
2017-10-17T10:34:27.447Z,32.80
2017-10-17T10:37:01.567Z,30.48
2017-10-17T10:39:29.872Z,36.64
2017-10-17T10:41:58.139Z,32.56
2017-10-17T10:44:26.407Z,31.18
2017-10-17T10:46:54.703Z,31.08
2017-10-17T10:49:22.984Z,34.46
2017-10-17T10:51:51.290Z,33.26
2017-10-17T10:54:22.804Z,43.72
2017-10-17T10:56:50.339Z,36.10
2017-10-17T10:59:35.406Z,28.26
2017-10-17T11:02:03.699Z,35.70
2017-10-17T11:04:31.955Z,35.18
2017-10-17T11:07:00.234Z,37.90
2017-10-17T11:09:28.484Z,26.24
2017-10-17T11:11:56.767Z,27.28
2017-10-17T11:14:35.097Z,36.44
2017-10-17T11:17:04.310Z,32.54
2017-10-17T11:19:54.422Z,36.00
2017-10-17T11:22:22.677Z,33.72
2017-10-17T11:24:51.000Z,27.82
2017-10-17T11:27:19.254Z,34.80
2017-10-17T11:29:50.583Z,30.40
2017-10-17T11:32:18.850Z,26.38
2017-10-17T11:34:50.655Z,29.46
2017-10-17T11:37:18.955Z,33.10
2017-10-17T11:39:50.731Z,38.84
2017-10-17T11:42:37.949Z,40.94
2017-10-17T11:45:06.208Z,46.16
2017-10-17T11:47:35.771Z,37.74
2017-10-17T11:50:05.456Z,34.32
2017-10-17T11:52:33.711Z,33.52
2017-10-17T11:55:01.998Z,33.36
2017-10-17T11:57:34.490Z,28.94
2017-10-17T12:00:03.085Z,39.90
2017-10-17T12:02:31.370Z,34.74
2017-10-17T12:04:59.622Z,34.68
2017-10-17T12:07:27.906Z,35.50
2017-10-17T12:09:56.199Z,35.30
2017-10-17T12:12:24.460Z,30.76
2017-10-17T12:14:52.719Z,34.14
2017-10-17T12:17:24.143Z,33.40
2017-10-17T12:19:52.404Z,38.22
2017-10-17T12:22:20.658Z,34.76
2017-10-17T12:24:48.939Z,31.60
2017-10-17T12:27:17.230Z,40.60
2017-10-17T12:29:45.491Z,38.70
2017-10-17T12:32:13.747Z,30.92
2017-10-17T12:34:51.927Z,28.86
2017-10-17T12:37:20.186Z,31.04
2017-10-17T12:39:48.439Z,32.70
2017-10-17T12:42:16.723Z,38.42
2017-10-17T12:45:06.487Z,35.58
2017-10-17T12:47:35.454Z,37.14
2017-10-17T12:50:08.595Z,35.92
2017-10-17T12:52:36.855Z,36.28
2017-10-17T12:55:09.435Z,28.58
2017-10-17T12:57:36.928Z,28.94
2017-10-17T13:00:11.303Z,27.34
2017-10-17T13:02:40.139Z,34.52
2017-10-17T13:05:08.391Z,26.46
2017-10-17T13:07:36.679Z,27.64
2017-10-17T13:10:24.838Z,34.20
2017-10-17T13:12:53.118Z,33.68
2017-10-17T13:15:21.369Z,35.92
2017-10-17T13:17:49.628Z,32.94
2017-10-17T13:20:34.560Z,32.80
2017-10-17T13:23:02.854Z,37.08
2017-10-17T13:25:31.106Z,29.50
2017-10-17T13:27:59.410Z,35.16
2017-10-17T13:30:28.628Z,28.98
2017-10-17T13:32:56.879Z,30.64
2017-10-17T13:35:25.168Z,29.10
2017-10-17T13:37:53.418Z,31.86
2017-10-17T13:40:21.674Z,34.60
2017-10-17T13:42:52.943Z,27.44
2017-10-17T13:45:21.195Z,28.84
2017-10-17T13:47:49.503Z,33.92
2017-10-17T13:50:17.755Z,34.76
2017-10-17T13:52:55.955Z,36.96
2017-10-17T13:55:24.243Z,30.94
2017-10-17T13:57:54.402Z,32.90
2017-10-17T14:00:22.683Z,25.42
2017-10-17T14:02:50.942Z,34.92
2017-10-17T14:05:19.247Z,30.52
2017-10-17T14:07:47.499Z,26.14
2017-10-17T14:10:15.766Z,33.02
2017-10-17T14:12:44.051Z,35.38
2017-10-17T14:15:12.299Z,41.42
2017-10-17T14:17:40.582Z,40.52
2017-10-17T14:20:08.830Z,26.56
2017-10-17T14:22:37.078Z,29.14
2017-10-17T14:25:05.368Z,30.16
2017-10-17T14:27:34.474Z,31.16
2017-10-17T14:30:03.457Z,36.18
2017-10-17T14:32:31.712Z,30.32
2017-10-17T14:34:59.964Z,30.38
2017-10-17T14:37:28.255Z,26.36
2017-10-17T14:39:56.505Z,31.88
2017-10-17T14:42:24.762Z,34.58
2017-10-17T14:44:53.060Z,29.56
2017-10-17T14:47:21.314Z,26.28
2017-10-17T14:49:49.565Z,30.00
2017-10-17T14:52:17.855Z,32.68
2017-10-17T14:54:46.097Z,33.74
2017-10-17T14:57:14.351Z,36.44
2017-10-17T14:59:42.632Z,24.50
2017-10-17T15:02:10.915Z,28.24
2017-10-17T15:04:40.355Z,44.68
2017-10-17T15:07:09.286Z,29.32
2017-10-17T15:09:37.575Z,24.84
2017-10-17T15:12:05.859Z,32.28
2017-10-17T15:14:35.479Z,35.76
2017-10-17T15:17:05.671Z,31.82
2017-10-17T15:19:35.033Z,36.74
2017-10-17T15:22:04.139Z,32.16
2017-10-17T15:24:32.399Z,27.36
2017-10-17T15:27:03.833Z,40.08
2017-10-17T15:29:32.080Z,31.22
2017-10-17T15:32:00.345Z,41.88
2017-10-17T15:34:28.627Z,31.20
2017-10-17T15:36:59.824Z,24.70
2017-10-17T15:39:28.114Z,29.94
2017-10-17T15:41:56.358Z,25.78
2017-10-17T15:44:24.620Z,27.70
2017-10-17T15:46:52.907Z,29.04
2017-10-17T15:49:21.167Z,27.76
2017-10-17T15:51:49.444Z,27.36
2017-10-17T15:54:17.699Z,34.94
2017-10-17T15:56:45.978Z,34.00
2017-10-17T15:59:14.283Z,30.38
2017-10-17T16:01:42.536Z,30.32
2017-10-17T16:04:10.799Z,25.24
2017-10-17T16:06:40.282Z,26.70
2017-10-17T16:09:08.907Z,29.42
2017-10-17T16:11:37.162Z,29.48
2017-10-17T16:14:06.286Z,29.72
2017-10-17T16:16:35.833Z,26.26
2017-10-17T16:19:05.199Z,35.68
2017-10-17T16:21:34.421Z,27.00
2017-10-17T16:24:03.350Z,25.24
2017-10-17T16:26:35.462Z,30.64
2017-10-17T16:29:03.712Z,27.38
2017-10-17T16:31:35.414Z,33.82
2017-10-17T16:34:04.484Z,36.00
2017-10-17T16:36:33.573Z,35.90
2017-10-17T16:39:01.858Z,26.66
2017-10-17T16:41:30.166Z,42.26
2017-10-17T16:43:58.418Z,25.62
2017-10-17T16:46:27.716Z,36.08
2017-10-17T16:48:56.002Z,32.40
2017-10-17T16:51:24.276Z,28.80
2017-10-17T16:53:52.575Z,29.72
2017-10-17T16:56:20.834Z,29.02
2017-10-17T16:58:49.094Z,29.58
2017-10-17T17:01:17.383Z,39.14
2017-10-17T17:03:45.630Z,30.36
2017-10-17T17:06:13.910Z,28.82
2017-10-17T17:08:42.158Z,27.74
2017-10-17T17:11:10.458Z,31.80
2017-10-17T17:13:39.414Z,32.52
2017-10-17T17:16:08.699Z,25.68
2017-10-17T17:18:36.994Z,26.56
2017-10-17T17:21:05.372Z,31.40
2017-10-17T17:23:34.251Z,25.50
2017-10-17T17:26:02.543Z,32.76
2017-10-17T17:28:30.880Z,30.32
2017-10-17T17:30:59.158Z,26.06
2017-10-17T17:33:27.464Z,34.04
2017-10-17T17:35:55.721Z,31.08
2017-10-17T17:38:23.223Z,31.26
2017-10-17T17:40:50.745Z,24.46
2017-10-17T17:43:19.030Z,34.22
2017-10-17T17:45:47.279Z,33.12
2017-10-17T17:48:15.558Z,31.46
2017-10-17T17:50:43.047Z,30.94
2017-10-17T17:53:11.339Z,31.20
2017-10-17T17:55:39.902Z,30.90
2017-10-17T17:58:08.906Z,29.84
2017-10-17T18:00:37.988Z,27.24
2017-10-17T18:03:06.248Z,26.24
2017-10-17T18:05:35.199Z,29.78
2017-10-17T18:08:04.292Z,26.84
2017-10-17T18:10:32.549Z,34.68
2017-10-17T18:13:00.996Z,32.88
2017-10-17T18:15:29.245Z,39.16
2017-10-17T18:17:57.553Z,33.40
2017-10-17T18:20:25.846Z,36.70
2017-10-17T18:22:54.102Z,34.42
2017-10-17T18:25:22.387Z,31.08
2017-10-17T18:27:50.670Z,26.74
2017-10-17T18:30:18.208Z,29.78
2017-10-17T18:32:46.458Z,27.02
2017-10-17T18:35:14.706Z,25.34
2017-10-17T18:37:42.972Z,26.32
2017-10-17T18:40:11.231Z,23.08
2017-10-17T18:42:39.946Z,23.36
2017-10-17T18:45:08.779Z,28.66
2017-10-17T18:47:37.034Z,22.86
2017-10-17T18:50:05.319Z,21.56
2017-10-17T18:52:34.577Z,29.70
2017-10-17T18:55:02.859Z,30.32
2017-10-17T18:57:31.179Z,29.38
2017-10-17T18:59:59.469Z,22.30
2017-10-17T19:02:27.746Z,21.64
2017-10-17T19:04:56.015Z,22.48
2017-10-17T19:07:40.603Z,20.56
2017-10-17T19:10:09.297Z,21.50
2017-10-17T19:12:38.047Z,31.70
2017-10-17T19:15:06.318Z,21.30
2017-10-17T19:17:33.856Z,37.26
2017-10-17T19:20:02.120Z,33.50
2017-10-17T19:22:30.379Z,24.80
2017-10-17T19:24:58.667Z,22.66
2017-10-17T19:27:27.942Z,21.24
2017-10-17T19:29:56.209Z,21.14
2017-10-17T19:32:24.503Z,23.12
2017-10-17T19:35:04.922Z,21.80
2017-10-17T19:37:34.338Z,19.60
2017-10-17T19:40:03.436Z,18.56
2017-10-17T19:42:31.695Z,21.30
2017-10-17T19:44:59.979Z,25.20
2017-10-17T19:47:28.235Z,18.98
2017-10-17T19:49:56.515Z,19.60
2017-10-17T19:52:24.789Z,23.46
2017-10-17T19:54:55.003Z,22.42
2017-10-17T19:57:24.278Z,30.76
2017-10-17T19:59:52.571Z,21.96
2017-10-17T20:02:20.831Z,21.96
2017-10-17T20:04:49.118Z,39.74
2017-10-17T20:07:17.371Z,25.76
2017-10-17T20:09:45.655Z,28.04
2017-10-17T20:12:13.938Z,33.14
2017-10-17T20:14:57.455Z,25.92
2017-10-17T20:17:25.751Z,38.46
2017-10-17T20:19:57.256Z,21.76
2017-10-17T20:22:25.551Z,29.72
2017-10-17T20:24:57.576Z,30.62
2017-10-17T20:27:25.874Z,27.46
2017-10-17T20:30:00.157Z,25.90
2017-10-17T20:32:28.451Z,21.48
2017-10-17T20:34:57.686Z,25.22
2017-10-17T20:37:25.943Z,28.00
2017-10-17T20:40:08.978Z,23.10
2017-10-17T20:42:37.235Z,28.60
2017-10-17T20:45:10.834Z,28.02
2017-10-17T20:47:39.587Z,23.80
2017-10-17T20:50:18.511Z,21.00
2017-10-17T20:52:46.767Z,22.72
2017-10-17T20:55:16.008Z,23.54
2017-10-17T20:57:44.289Z,21.50
2017-10-17T21:00:12.541Z,28.86
2017-10-17T21:02:55.040Z,22.04
2017-10-17T21:05:23.330Z,24.40
2017-10-17T21:07:59.306Z,23.22
2017-10-17T21:10:27.558Z,25.02
2017-10-17T21:12:55.818Z,22.98
2017-10-17T21:15:24.106Z,22.42
2017-10-17T21:17:53.286Z,19.86
2017-10-17T21:20:21.571Z,23.66
2017-10-17T21:22:50.758Z,32.26
2017-10-17T21:25:19.051Z,23.66
2017-10-17T21:27:46.551Z,19.28
2017-10-17T21:30:14.816Z,18.10
2017-10-17T21:32:43.094Z,21.60
2017-10-17T21:35:11.358Z,21.10
2017-10-17T21:37:42.919Z,27.62
2017-10-17T21:40:10.419Z,24.26
2017-10-17T21:42:39.301Z,16.16
2017-10-17T21:45:07.996Z,21.52
2017-10-17T21:47:37.226Z,14.86
2017-10-17T21:50:05.487Z,18.70
2017-10-17T21:52:38.658Z,20.02
2017-10-17T21:55:06.971Z,24.18
2017-10-17T21:57:48.632Z,22.02
2017-10-17T22:00:16.925Z,19.04
2017-10-17T22:02:45.193Z,32.44
2017-10-17T22:05:14.397Z,24.80
2017-10-17T22:07:42.708Z,22.90
2017-10-17T22:10:10.993Z,18.82
2017-10-17T22:12:40.510Z,19.92
2017-10-17T22:15:09.537Z,17.16
2017-10-17T22:17:37.071Z,20.78
2017-10-17T22:20:05.324Z,22.20
2017-10-17T22:22:34.517Z,14.96
2017-10-17T22:25:03.606Z,26.64
2017-10-17T22:27:31.895Z,19.50
2017-10-17T22:30:00.144Z,16.74
2017-10-17T22:32:28.404Z,22.26
2017-10-17T22:34:56.694Z,23.08
2017-10-17T22:37:24.984Z,21.66
2017-10-17T22:39:53.231Z,21.04
2017-10-17T22:42:21.491Z,12.98
2017-10-17T22:44:49.788Z,24.00
2017-10-17T22:47:18.034Z,15.84
2017-10-17T22:49:46.299Z,24.44
2017-10-17T22:52:14.583Z,19.84
2017-10-17T22:54:42.834Z,28.52
2017-10-17T22:57:14.980Z,16.82
2017-10-17T22:59:43.243Z,17.22
2017-10-17T23:02:11.543Z,25.16
2017-10-17T23:04:39.790Z,22.14
2017-10-17T23:07:08.823Z,16.52
2017-10-17T23:09:37.087Z,26.54
2017-10-17T23:12:05.382Z,24.96
2017-10-17T23:14:34.731Z,22.76
2017-10-17T23:17:16.747Z,25.72
2017-10-17T23:19:56.879Z,20.88
2017-10-17T23:22:35.940Z,16.04
2017-10-17T23:25:05.482Z,16.70
2017-10-17T23:27:33.756Z,17.24
2017-10-17T23:30:02.043Z,17.62
2017-10-17T23:32:29.570Z,15.86
2017-10-17T23:34:57.818Z,18.60
2017-10-17T23:37:26.078Z,19.82
2017-10-17T23:39:54.358Z,14.74
2017-10-17T23:42:22.610Z,14.28
2017-10-17T23:44:50.902Z,21.06
2017-10-17T23:47:18.415Z,20.24
2017-10-17T23:49:46.719Z,19.46
2017-10-17T23:52:14.967Z,16.42
2017-10-17T23:54:43.222Z,16.08
2017-10-17T23:57:11.507Z,22.82
2017-10-17T23:59:39.787Z,26.50
